Time;durP1;ratioP1;P1;durP2;ratioP2;P2;SDS_P1;SDS_P2;PMS_P1;PMS_P2;Temp;Humidity;BMP_temperature;BMP_pressure;BME280_temperature;BME280_humidity;BME280_pressure;Samples;Min_cycle;Max_cycle;Signal;HPM_P1;HPM_P2
2023/04/11 00:00:26;;;;;;;7.47;6.67;;;3.40;99.90;;;;;;5039360;28;20478;-76
2023/04/11 00:02:53;;;;;;;7.50;6.10;;;3.40;99.90;;;;;;5039493;28;20468;-76
2023/04/11 00:05:20;;;;;;;9.07;6.00;;;3.30;99.90;;;;;;5042726;28;20453;-76
2023/04/11 00:07:49;;;;;;;8.47;7.10;;;3.30;99.90;;;;;;5042952;28;20457;-75
2023/04/11 00:10:16;;;;;;;12.03;6.50;;;3.50;99.90;;;;;;5043105;28;20475;-76
2023/04/11 00:12:43;;;;;;;6.67;5.97;;;3.70;99.90;;;;;;5038077;28;20469;-76
2023/04/11 00:15:11;;;;;;;6.40;5.70;;;3.80;99.90;;;;;;5041415;28;20527;-76
2023/04/11 00:17:38;;;;;;;10.70;7.20;;;3.70;99.90;;;;;;5034136;28;20461;-75
2023/04/11 00:20:06;;;;;;;10.37;7.83;;;3.60;99.90;;;;;;5044748;28;20932;-76
2023/04/11 00:22:34;;;;;;;8.97;6.50;;;3.50;99.90;;;;;;5042717;28;20459;-76
2023/04/11 00:25:03;;;;;;;12.47;8.80;;;3.50;99.90;;;;;;5039762;28;20472;-76
2023/04/11 00:27:29;;;;;;;10.00;6.60;;;3.50;99.90;;;;;;5042437;28;20457;-76
2023/04/11 00:29:56;;;;;;;8.33;7.10;;;3.60;99.90;;;;;;5035816;28;20546;-76
2023/04/11 00:32:24;;;;;;;11.23;7.77;;;3.50;99.90;;;;;;5037860;28;21111;-76
2023/04/11 00:34:51;;;;;;;9.60;7.50;;;3.40;99.90;;;;;;5033716;28;20465;-76
2023/04/11 00:37:20;;;;;;;8.40;7.03;;;3.40;99.90;;;;;;5043747;28;20457;-76
2023/04/11 00:39:49;;;;;;;10.23;7.33;;;3.30;99.90;;;;;;5032354;28;20588;-76
2023/04/11 00:42:17;;;;;;;9.70;6.83;;;3.30;99.90;;;;;;5034828;28;20497;-76
2023/04/11 00:44:44;;;;;;;9.47;6.50;;;3.30;99.90;;;;;;5038466;28;20781;-76
2023/04/11 00:47:12;;;;;;;10.17;7.27;;;3.30;99.90;;;;;;5040743;28;21073;-76
2023/04/11 00:49:40;;;;;;;9.60;6.73;;;3.30;99.90;;;;;;5046388;28;20453;-76
2023/04/11 00:52:07;;;;;;;7.80;5.70;;;3.20;99.90;;;;;;5046293;28;20469;-76
2023/04/11 00:54:34;;;;;;;9.70;6.20;;;3.30;99.90;;;;;;5046607;28;20458;-76
2023/04/11 00:57:02;;;;;;;8.73;6.67;;;3.30;99.90;;;;;;5048533;28;20488;-76
2023/04/11 00:59:32;;;;;;;7.73;6.90;;;3.30;99.90;;;;;;5043600;28;20926;-76
2023/04/11 01:02:00;;;;;;;7.37;6.63;;;3.20;99.90;;;;;;5040032;28;20457;-76
2023/04/11 01:04:28;;;;;;;8.33;7.07;;;3.20;99.90;;;;;;5040088;28;20544;-75
2023/04/11 01:07:00;;;;;;;8.83;6.93;;;3.20;99.90;;;;;;5037872;28;20526;-76
2023/04/11 01:09:28;;;;;;;6.83;5.53;;;3.20;99.90;;;;;;5046910;28;20455;-75
2023/04/11 01:11:56;;;;;;;14.40;8.07;;;3.20;99.90;;;;;;5038337;28;20519;-75
2023/04/11 01:14:25;;;;;;;10.17;7.90;;;3.10;99.90;;;;;;5049225;28;21043;-76
2023/04/11 01:16:55;;;;;;;9.33;6.40;;;3.00;99.90;;;;;;5038108;28;20550;-76
2023/04/11 01:19:24;;;;;;;10.77;7.50;;;3.00;99.90;;;;;;5045675;28;20520;-75
2023/04/11 01:21:52;;;;;;;7.60;6.20;;;3.00;99.90;;;;;;5041796;28;20482;-76
2023/04/11 01:24:20;;;;;;;7.53;6.63;;;3.00;99.90;;;;;;5042737;28;23654;-75
2023/04/11 01:26:47;;;;;;;10.70;7.70;;;3.00;99.90;;;;;;5045554;28;21097;-75
2023/04/11 01:29:14;;;;;;;7.90;7.00;;;3.00;99.90;;;;;;5040384;28;20906;-75
2023/04/11 01:31:41;;;;;;;10.43;7.70;;;2.90;99.90;;;;;;5044929;28;20457;-76
2023/04/11 01:34:11;;;;;;;8.40;6.00;;;2.80;99.90;;;;;;5043592;28;20923;-76
2023/04/11 01:36:39;;;;;;;8.20;5.70;;;2.80;99.90;;;;;;5033638;28;20472;-75
2023/04/11 01:39:06;;;;;;;9.60;7.33;;;2.90;99.90;;;;;;5044906;28;20472;-76
2023/04/11 01:41:36;;;;;;;10.50;6.83;;;2.80;99.90;;;;;;5043884;28;20690;-76
2023/04/11 01:44:04;;;;;;;9.17;6.77;;;2.80;99.90;;;;;;5046537;28;20461;-75
2023/04/11 01:46:31;;;;;;;8.77;6.00;;;2.80;99.90;;;;;;5034320;28;20457;-75
2023/04/11 01:48:59;;;;;;;8.87;6.50;;;2.80;99.90;;;;;;5043995;28;20542;-75
2023/04/11 01:51:27;;;;;;;7.60;6.17;;;2.70;99.90;;;;;;5040913;28;20484;-76
2023/04/11 01:53:54;;;;;;;8.47;6.50;;;2.70;99.90;;;;;;5044993;28;20994;-75
2023/04/11 01:56:21;;;;;;;11.50;7.60;;;2.70;99.90;;;;;;5041068;28;20496;-75
2023/04/11 01:58:50;;;;;;;9.30;6.40;;;2.70;99.90;;;;;;5040059;28;20465;-75
2023/04/11 02:01:18;;;;;;;6.87;5.47;;;2.70;99.90;;;;;;5044476;28;20486;-76
2023/04/11 02:03:45;;;;;;;8.67;5.90;;;2.80;99.90;;;;;;5042175;28;20530;-76
2023/04/11 02:06:12;;;;;;;9.27;7.10;;;2.70;99.90;;;;;;5039665;28;20453;-76
2023/04/11 02:08:39;;;;;;;8.00;6.50;;;2.70;99.90;;;;;;5038511;28;22407;-75
2023/04/11 02:11:07;;;;;;;8.10;6.77;;;2.70;99.90;;;;;;5037040;28;20437;-75
2023/04/11 02:13:35;;;;;;;10.00;6.63;;;2.70;99.90;;;;;;5043027;28;20477;-75
2023/04/11 02:16:10;;;;;;;8.07;5.73;;;2.70;99.90;;;;;;5046458;28;20453;-76
2023/04/11 02:18:37;;;;;;;9.43;6.27;;;2.80;99.90;;;;;;5045083;28;20444;-75
2023/04/11 02:21:06;;;;;;;8.97;6.47;;;2.80;99.90;;;;;;5045380;28;20516;-75
2023/04/11 02:23:33;;;;;;;10.70;5.90;;;2.90;99.90;;;;;;5040173;28;20497;-75
2023/04/11 02:26:00;;;;;;;7.30;5.70;;;2.90;99.90;;;;;;5044131;28;20461;-75
2023/04/11 02:28:27;;;;;;;8.83;6.93;;;3.00;99.90;;;;;;5042393;28;20474;-75
2023/04/11 02:30:54;;;;;;;7.47;6.03;;;3.00;99.90;;;;;;5044790;28;20502;-76
2023/04/11 02:33:23;;;;;;;6.20;5.37;;;3.00;99.90;;;;;;5032350;28;20501;-76
2023/04/11 02:35:50;;;;;;;6.27;5.20;;;3.00;99.90;;;;;;5038532;28;20461;-76
2023/04/11 02:38:17;;;;;;;7.10;5.17;;;3.00;99.90;;;;;;5038712;28;20444;-75
2023/04/11 02:40:44;;;;;;;6.77;5.20;;;3.00;99.90;;;;;;5039735;28;20481;-76
2023/04/11 02:43:11;;;;;;;6.23;4.80;;;3.10;99.90;;;;;;5041060;28;20464;-76
2023/04/11 02:45:38;;;;;;;9.60;5.43;;;3.10;99.90;;;;;;5044658;28;20454;-75
2023/04/11 02:48:05;;;;;;;6.17;5.37;;;3.10;99.90;;;;;;5045984;28;21014;-76
2023/04/11 02:50:33;;;;;;;5.40;4.40;;;3.20;99.90;;;;;;5037789;28;20477;-76
2023/04/11 02:53:00;;;;;;;6.10;5.20;;;3.20;99.90;;;;;;5043186;28;20469;-76
2023/04/11 02:55:27;;;;;;;8.27;6.27;;;3.20;99.90;;;;;;5045532;28;20457;-76
2023/04/11 02:57:54;;;;;;;7.57;5.67;;;3.30;99.90;;;;;;5038561;28;20530;-76
2023/04/11 03:00:21;;;;;;;6.67;4.60;;;3.20;99.90;;;;;;5041006;28;20511;-75
2023/04/11 03:02:48;;;;;;;5.60;4.93;;;3.20;99.90;;;;;;5042394;28;20913;-76
2023/04/11 03:05:15;;;;;;;5.80;4.67;;;3.20;99.90;;;;;;5043572;28;20536;-75
2023/04/11 03:07:45;;;;;;;6.07;5.00;;;3.10;99.90;;;;;;5039638;28;20449;-75
2023/04/11 03:10:12;;;;;;;5.37;4.40;;;3.20;99.90;;;;;;5045681;28;20456;-75
2023/04/11 03:12:40;;;;;;;7.47;5.40;;;3.10;99.90;;;;;;5040803;28;20515;-75
2023/04/11 03:15:08;;;;;;;5.70;5.10;;;3.00;99.90;;;;;;5036309;28;20449;-75
2023/04/11 03:17:35;;;;;;;6.57;5.00;;;3.00;99.90;;;;;;5037322;28;20523;-75
2023/04/11 03:20:05;;;;;;;6.10;5.17;;;2.90;99.90;;;;;;5041086;28;20492;-76
2023/04/11 03:22:32;;;;;;;5.67;4.50;;;2.80;99.90;;;;;;5040674;28;20491;-75
2023/04/11 03:25:01;;;;;;;7.00;4.83;;;2.70;99.90;;;;;;5042960;28;20538;-75
2023/04/11 03:27:28;;;;;;;6.37;5.70;;;2.80;99.90;;;;;;5043864;28;20469;-75
2023/04/11 03:29:55;;;;;;;6.53;4.23;;;2.80;99.90;;;;;;5040245;28;20522;-75
2023/04/11 03:32:22;;;;;;;5.43;4.53;;;2.70;99.90;;;;;;5043465;28;20449;-75
2023/04/11 03:34:50;;;;;;;6.80;5.20;;;2.70;99.90;;;;;;5033477;28;20464;-76
2023/04/11 03:37:17;;;;;;;5.10;4.40;;;2.70;99.90;;;;;;5045238;28;20465;-75
2023/04/11 03:39:44;;;;;;;6.50;5.00;;;2.70;99.90;;;;;;5038242;28;20497;-75
2023/04/11 03:42:12;;;;;;;14.87;9.93;;;2.70;99.90;;;;;;5040218;28;20554;-75
2023/04/11 03:44:39;;;;;;;45.37;30.27;;;2.80;99.90;;;;;;5042426;28;20548;-75
2023/04/11 03:47:06;;;;;;;110.87;60.17;;;2.80;99.90;;;;;;5044580;28;20518;-75
2023/04/11 03:49:33;;;;;;;39.63;25.73;;;2.80;99.90;;;;;;5042066;28;20514;-75
2023/04/11 03:52:00;;;;;;;20.43;14.37;;;2.90;99.90;;;;;;5037300;28;20487;-76
2023/04/11 03:54:27;;;;;;;14.43;9.90;;;2.90;99.90;;;;;;5043038;28;20502;-75
2023/04/11 03:56:56;;;;;;;12.23;9.43;;;3.00;99.90;;;;;;5043917;28;20501;-76
2023/04/11 03:59:24;;;;;;;10.40;7.00;;;3.00;99.90;;;;;;5043962;28;20843;-75
2023/04/11 04:01:51;;;;;;;8.47;6.10;;;3.10;99.90;;;;;;5040463;28;20549;-75
2023/04/11 04:04:18;;;;;;;7.20;5.93;;;3.20;99.90;;;;;;5034623;28;20904;-76
2023/04/11 04:06:45;;;;;;;7.27;6.40;;;3.20;99.90;;;;;;5038721;28;20445;-75
2023/04/11 04:09:12;;;;;;;8.50;6.00;;;3.30;99.90;;;;;;5044048;28;20445;-75
2023/04/11 04:11:39;;;;;;;5.73;5.20;;;3.30;99.90;;;;;;5040738;28;20534;-75
2023/04/11 04:14:06;;;;;;;6.27;5.67;;;3.30;99.90;;;;;;5045686;28;20594;-75
2023/04/11 04:16:34;;;;;;;7.00;5.50;;;3.50;99.90;;;;;;5033947;28;20462;-76
2023/04/11 04:19:01;;;;;;;4.67;4.13;;;3.60;99.90;;;;;;5044207;28;20455;-75
2023/04/11 04:21:31;;;;;;;5.60;5.10;;;3.60;99.90;;;;;;5041399;28;20498;-75
2023/04/11 04:24:02;;;;;;;13.60;7.60;;;3.60;99.90;;;;;;5041584;28;20868;-76
2023/04/11 04:26:29;;;;;;;6.80;5.13;;;3.70;99.90;;;;;;5034654;28;20453;-75
2023/04/11 04:29:03;;;;;;;6.87;5.50;;;3.60;99.90;;;;;;5040857;28;20453;-76
2023/04/11 04:31:32;;;;;;;5.90;5.30;;;3.60;99.90;;;;;;5038083;28;20466;-75
2023/04/11 04:34:07;;;;;;;5.37;4.50;;;3.60;99.90;;;;;;5031952;28;20523;-76
2023/04/11 04:36:44;;;;;;;7.40;5.40;;;3.60;99.90;;;;;;5043869;28;20998;-75
2023/04/11 04:39:16;;;;;;;9.57;6.50;;;3.70;99.90;;;;;;5037032;28;20468;-75
2023/04/11 04:41:44;;;;;;;5.43;4.60;;;3.60;99.90;;;;;;5043088;28;21028;-75
2023/04/11 04:44:11;;;;;;;5.83;4.70;;;3.60;99.90;;;;;;5039486;28;21120;-75
2023/04/11 04:46:38;;;;;;;5.53;4.00;;;3.70;99.90;;;;;;5041500;28;20499;-76
2023/04/11 04:49:07;;;;;;;6.70;3.87;;;3.90;99.90;;;;;;5048884;28;20558;-76
2023/04/11 04:51:35;;;;;;;7.30;4.87;;;4.00;99.90;;;;;;5038945;28;20517;-75
2023/04/11 04:54:03;;;;;;;5.23;4.57;;;4.10;99.90;;;;;;5043795;28;20491;-76
2023/04/11 04:56:30;;;;;;;5.70;4.47;;;4.20;99.90;;;;;;5042698;28;20496;-76
2023/04/11 04:58:58;;;;;;;4.73;4.00;;;4.30;99.90;;;;;;5039353;28;20465;-76
2023/04/11 05:01:26;;;;;;;6.47;4.50;;;4.20;99.90;;;;;;5038081;28;20562;-76
2023/04/11 05:03:58;;;;;;;6.40;4.77;;;4.20;99.90;;;;;;5031554;28;20480;-75
2023/04/11 05:06:29;;;;;;;5.07;4.03;;;4.30;99.90;;;;;;5041235;28;20937;-76
2023/04/11 05:08:57;;;;;;;4.00;3.60;;;4.40;99.90;;;;;;5036311;28;21020;-76
2023/04/11 05:11:24;;;;;;;5.97;4.50;;;4.40;99.90;;;;;;5043552;28;20913;-76
2023/04/11 05:13:51;;;;;;;6.53;4.20;;;4.40;99.90;;;;;;5039882;28;20470;-76
2023/04/11 05:16:18;;;;;;;5.27;3.60;;;4.40;99.90;;;;;;5036448;28;20519;-75
2023/04/11 05:18:45;;;;;;;6.83;5.47;;;4.40;99.90;;;;;;5041723;28;20777;-75
2023/04/11 05:21:13;;;;;;;9.90;7.30;;;4.30;99.90;;;;;;5045965;28;20502;-75
2023/04/11 05:23:41;;;;;;;7.40;5.87;;;4.30;99.90;;;;;;5039915;28;20461;-75
2023/04/11 05:26:09;;;;;;;7.17;6.00;;;4.30;99.90;;;;;;5043816;28;20864;-75
2023/04/11 05:28:37;;;;;;;7.03;4.60;;;4.30;99.90;;;;;;5041857;28;20488;-75
2023/04/11 05:31:05;;;;;;;4.30;3.90;;;4.30;99.90;;;;;;5047087;28;20941;-75
2023/04/11 05:33:32;;;;;;;6.40;4.70;;;4.40;99.90;;;;;;5035302;28;20465;-75
2023/04/11 05:35:59;;;;;;;5.60;4.43;;;4.50;99.90;;;;;;5048603;28;20464;-75
2023/04/11 05:38:26;;;;;;;5.57;4.70;;;4.50;99.90;;;;;;5046198;28;20579;-75
2023/04/11 05:40:55;;;;;;;5.63;5.07;;;4.60;99.90;;;;;;5041163;28;20508;-75
2023/04/11 05:43:22;;;;;;;7.50;6.03;;;4.70;99.90;;;;;;5041062;28;20465;-75
2023/04/11 05:45:49;;;;;;;5.97;4.87;;;4.80;99.90;;;;;;5042869;28;20905;-75
2023/04/11 05:48:18;;;;;;;6.70;5.30;;;4.80;99.90;;;;;;5045666;28;20960;-75
2023/04/11 05:50:45;;;;;;;7.50;5.53;;;5.00;99.90;;;;;;5044379;28;20471;-75
2023/04/11 05:53:12;;;;;;;7.00;5.03;;;5.00;99.90;;;;;;5041932;28;20797;-75
2023/04/11 05:55:39;;;;;;;4.50;3.80;;;5.00;99.90;;;;;;5051171;28;20496;-75
2023/04/11 05:58:08;;;;;;;6.27;4.80;;;5.10;99.90;;;;;;5046095;28;20457;-75
2023/04/11 06:00:37;;;;;;;7.10;4.83;;;5.20;99.90;;;;;;5044928;28;20477;-75
2023/04/11 06:03:05;;;;;;;4.97;4.40;;;5.20;99.90;;;;;;5045571;28;20823;-75
2023/04/11 06:05:32;;;;;;;5.93;5.33;;;5.30;99.90;;;;;;5042978;28;20491;-77
2023/04/11 06:07:59;;;;;;;5.37;4.80;;;5.40;99.90;;;;;;5039414;28;20475;-78
2023/04/11 06:10:26;;;;;;;9.73;6.03;;;5.50;99.90;;;;;;5036999;28;20479;-78
2023/04/11 06:12:53;;;;;;;6.50;4.43;;;5.50;99.90;;;;;;5037884;28;20542;-78
2023/04/11 06:15:23;;;;;;;6.40;4.23;;;5.50;99.90;;;;;;5038285;28;20518;-78
2023/04/11 06:17:50;;;;;;;6.37;5.77;;;5.60;99.90;;;;;;5043158;28;20566;-78
2023/04/11 06:20:17;;;;;;;6.23;5.63;;;5.60;99.90;;;;;;5035033;28;20914;-78
2023/04/11 06:22:45;;;;;;;5.87;4.70;;;5.40;99.90;;;;;;5043914;28;20512;-78
2023/04/11 06:25:13;;;;;;;7.93;5.20;;;5.40;99.90;;;;;;5040904;28;20896;-78
2023/04/11 06:27:40;;;;;;;6.40;4.87;;;5.60;99.90;;;;;;5050865;28;20469;-77
2023/04/11 06:30:08;;;;;;;6.13;5.50;;;5.60;99.90;;;;;;5044718;28;20484;-77
2023/04/11 06:32:37;;;;;;;5.93;5.30;;;5.50;99.90;;;;;;5037034;28;20500;-78
2023/04/11 06:35:04;;;;;;;5.70;4.63;;;5.50;99.90;;;;;;5046084;28;20514;-78
2023/04/11 06:37:31;;;;;;;5.67;4.20;;;5.50;99.90;;;;;;5038526;28;20461;-78
2023/04/11 06:39:59;;;;;;;7.50;4.83;;;5.40;99.90;;;;;;5037560;28;20590;-75
2023/04/11 06:42:27;;;;;;;7.57;4.97;;;5.30;99.90;;;;;;5037342;28;21050;-78
2023/04/11 06:44:55;;;;;;;7.30;4.80;;;5.50;99.90;;;;;;5039978;28;20544;-78
2023/04/11 06:47:21;;;;;;;7.63;6.07;;;5.60;99.90;;;;;;5040588;28;20888;-78
2023/04/11 06:49:50;;;;;;;6.60;5.23;;;5.80;99.90;;;;;;5043057;28;20944;-78
2023/04/11 06:52:17;;;;;;;7.50;6.07;;;6.00;99.90;;;;;;5042156;28;20472;-75
2023/04/11 06:54:44;;;;;;;8.20;6.80;;;6.10;99.90;;;;;;5040659;28;20457;-75
2023/04/11 06:57:12;;;;;;;6.90;6.20;;;6.20;99.90;;;;;;5039003;28;20481;-77
2023/04/11 06:59:40;;;;;;;7.50;6.00;;;6.10;99.90;;;;;;5044364;28;20453;-78
2023/04/11 07:02:07;;;;;;;7.13;5.50;;;6.00;99.90;;;;;;5039410;28;20484;-78
2023/04/11 07:04:34;;;;;;;6.13;5.37;;;6.10;99.90;;;;;;5046376;28;20574;-77
2023/04/11 07:07:03;;;;;;;7.27;5.50;;;6.00;99.90;;;;;;5041672;28;20464;-77
2023/04/11 07:09:30;;;;;;;6.50;4.90;;;5.90;99.90;;;;;;5040434;28;20763;-78
2023/04/11 07:11:57;;;;;;;6.93;5.43;;;6.00;99.90;;;;;;5040126;28;20496;-78
2023/04/11 07:14:24;;;;;;;7.00;6.17;;;6.00;99.90;;;;;;5043133;28;20524;-78
2023/04/11 07:16:51;;;;;;;6.47;5.90;;;6.10;99.90;;;;;;5038799;28;20964;-78
2023/04/11 07:19:18;;;;;;;7.67;6.60;;;6.10;99.90;;;;;;5029448;28;22122;-78
2023/04/11 07:21:45;;;;;;;7.40;6.47;;;6.00;99.90;;;;;;5043203;28;20517;-78
2023/04/11 07:24:13;;;;;;;7.37;5.53;;;6.10;99.90;;;;;;5039083;28;20863;-78
2023/04/11 07:26:41;;;;;;;5.83;5.30;;;6.20;99.90;;;;;;5037279;28;20453;-77
2023/04/11 07:29:09;;;;;;;6.87;5.13;;;6.00;99.90;;;;;;5037408;28;20951;-78
2023/04/11 07:31:36;;;;;;;7.90;5.60;;;6.00;99.90;;;;;;5041638;28;20465;-77
2023/04/11 07:34:03;;;;;;;5.57;4.30;;;6.00;99.90;;;;;;5038579;28;20476;-77
2023/04/11 07:36:30;;;;;;;5.10;4.60;;;6.10;99.90;;;;;;5037862;28;20507;-78
2023/04/11 07:38:58;;;;;;;6.50;4.50;;;6.00;99.90;;;;;;5044469;28;20465;-78
2023/04/11 07:41:27;;;;;;;6.77;4.40;;;6.10;99.90;;;;;;5036341;28;20501;-77
2023/04/11 07:43:53;;;;;;;7.03;5.37;;;6.50;99.90;;;;;;5040642;28;20461;-77
2023/04/11 07:46:20;;;;;;;5.73;4.93;;;6.70;99.90;;;;;;5038968;28;20493;-77
2023/04/11 07:48:47;;;;;;;4.97;4.33;;;6.90;99.90;;;;;;5035105;28;20552;-76
2023/04/11 07:51:15;;;;;;;5.80;4.77;;;7.20;99.90;;;;;;5034509;28;21005;-77
2023/04/11 07:53:42;;;;;;;5.17;4.40;;;7.00;99.90;;;;;;5032256;28;20446;-76
2023/04/11 07:56:10;;;;;;;5.30;4.40;;;7.30;99.90;;;;;;5034057;28;20558;-76
2023/04/11 07:58:39;;;;;;;4.93;4.50;;;7.20;99.90;;;;;;5040287;28;20548;-77
2023/04/11 08:01:08;;;;;;;6.20;5.10;;;7.30;99.90;;;;;;5044784;28;20460;-77
2023/04/11 08:03:35;;;;;;;5.83;4.77;;;7.40;99.90;;;;;;5033306;28;20466;-77
2023/04/11 08:06:02;;;;;;;5.43;4.90;;;7.40;99.90;;;;;;5039035;28;21058;-76
2023/04/11 08:08:29;;;;;;;5.33;3.83;;;7.30;99.90;;;;;;5042326;28;20559;-77
2023/04/11 08:10:56;;;;;;;4.90;4.03;;;7.30;99.90;;;;;;5039057;28;20554;-76
2023/04/11 08:13:23;;;;;;;6.00;5.13;;;7.10;99.90;;;;;;5043205;28;20453;-77
2023/04/11 08:15:51;;;;;;;7.53;5.60;;;7.00;99.90;;;;;;5030936;28;20508;-76
2023/04/11 08:18:20;;;;;;;5.73;4.50;;;7.20;99.90;;;;;;5043665;28;20842;-77
2023/04/11 08:20:47;;;;;;;6.40;5.63;;;7.30;99.90;;;;;;5033952;28;20536;-77
2023/04/11 08:23:15;;;;;;;6.60;5.87;;;7.50;99.90;;;;;;5028030;28;21036;-77
2023/04/11 08:25:42;;;;;;;8.57;7.60;;;7.50;99.90;;;;;;5039735;28;20507;-76
2023/04/11 08:28:11;;;;;;;7.30;6.50;;;7.40;99.90;;;;;;5035569;28;20552;-77
2023/04/11 08:30:38;;;;;;;9.00;7.17;;;7.20;99.90;;;;;;5041007;28;20460;-77
2023/04/11 08:33:08;;;;;;;6.70;6.00;;;7.30;99.90;;;;;;5032748;28;20547;-77
2023/04/11 08:35:35;;;;;;;8.53;6.10;;;7.20;99.90;;;;;;5041144;28;20457;-77
2023/04/11 08:38:02;;;;;;;6.57;5.93;;;7.30;99.90;;;;;;5041775;28;20971;-77
2023/04/11 08:40:30;;;;;;;7.27;5.70;;;7.50;99.90;;;;;;5039303;28;20465;-77
2023/04/11 08:42:59;;;;;;;6.37;5.13;;;7.70;99.90;;;;;;5040032;28;20494;-77
2023/04/11 08:45:27;;;;;;;7.60;5.67;;;7.70;99.90;;;;;;5042009;28;20552;-77
2023/04/11 08:47:54;;;;;;;7.87;5.50;;;7.50;99.90;;;;;;5039156;28;20929;-77
2023/04/11 08:50:22;;;;;;;6.57;5.97;;;7.50;99.90;;;;;;5034844;28;20465;-77
2023/04/11 08:52:51;;;;;;;7.90;6.00;;;7.30;99.90;;;;;;5036823;28;20449;-77
2023/04/11 08:55:18;;;;;;;7.70;6.20;;;7.50;99.90;;;;;;5034585;28;20995;-77
2023/04/11 08:57:45;;;;;;;8.00;7.20;;;7.40;99.90;;;;;;5047948;28;20546;-77
2023/04/11 09:00:13;;;;;;;7.40;6.70;;;7.30;99.90;;;;;;5041262;28;20461;-76
2023/04/11 09:02:58;;;;;;;13.30;6.27;;;7.20;99.90;;;;;;5045208;28;20892;-76
2023/04/11 09:05:28;;;;;;;6.97;5.87;;;7.10;99.90;;;;;;5035594;28;20470;-76
2023/04/11 09:07:56;;;;;;;8.00;6.47;;;7.20;99.90;;;;;;5038419;28;20472;-77
2023/04/11 09:10:24;;;;;;;7.30;6.50;;;7.20;99.90;;;;;;5056173;28;20565;-76
2023/04/11 09:12:53;;;;;;;9.60;8.57;;;7.40;99.90;;;;;;5038352;28;20534;-77
2023/04/11 09:15:22;;;;;;;9.90;7.63;;;7.60;99.90;;;;;;5041621;28;20515;-77
2023/04/11 09:17:49;;;;;;;11.17;6.57;;;7.50;99.90;;;;;;5048418;28;20467;-75
2023/04/11 09:20:17;;;;;;;9.60;7.43;;;7.70;99.90;;;;;;5045512;28;20457;-75
2023/04/11 09:22:49;;;;;;;11.13;7.97;;;7.70;99.90;;;;;;5050589;28;20503;-75
2023/04/11 09:25:16;;;;;;;10.33;7.87;;;7.80;99.90;;;;;;5041586;28;20492;-75
2023/04/11 09:27:44;;;;;;;9.27;8.10;;;7.70;99.90;;;;;;5045074;28;20575;-75
2023/04/11 09:30:22;;;;;;;8.60;7.70;;;7.70;99.90;;;;;;5045004;28;20963;-75
2023/04/11 09:32:51;;;;;;;10.90;7.13;;;7.50;99.90;;;;;;5035604;28;20544;-77
2023/04/11 09:35:22;;;;;;;11.20;8.70;;;7.40;99.90;;;;;;5042863;28;20759;-78
2023/04/11 09:37:53;;;;;;;9.43;8.30;;;7.30;99.90;;;;;;5045160;28;20534;-76
2023/04/11 09:40:22;;;;;;;9.00;7.37;;;7.50;99.90;;;;;;5044757;28;20464;-75
2023/04/11 09:42:56;;;;;;;9.07;7.77;;;7.50;99.90;;;;;;5036318;28;20939;-77
2023/04/11 09:45:24;;;;;;;9.10;7.33;;;7.30;99.90;;;;;;5044246;28;20464;-78
2023/04/11 09:47:54;;;;;;;9.13;8.03;;;7.50;99.90;;;;;;5044283;28;20465;-74
2023/04/11 09:50:22;;;;;;;9.27;8.33;;;7.60;99.90;;;;;;5045273;28;20557;-75
2023/04/11 09:52:51;;;;;;;10.60;6.67;;;7.60;99.90;;;;;;5039983;28;20465;-77
2023/04/11 09:55:19;;;;;;;10.63;8.27;;;7.50;99.90;;;;;;5042226;28;20913;-77
2023/04/11 09:57:49;;;;;;;12.47;8.13;;;7.50;99.90;;;;;;5044650;28;20573;-75
2023/04/11 10:00:20;;;;;;;13.50;9.93;;;7.40;99.90;;;;;;5046428;28;20469;-75
2023/04/11 10:02:49;;;;;;;17.07;15.10;;;7.50;99.90;;;;;;5046596;28;20500;-75
2023/04/11 10:05:17;;;;;;;27.70;21.97;;;7.70;99.90;;;;;;5041435;28;20483;-75
2023/04/11 10:07:56;;;;;;;19.37;15.80;;;8.00;99.90;;;;;;5044211;28;20458;-75
2023/04/11 10:10:24;;;;;;;16.83;15.03;;;8.20;99.90;;;;;;5041268;28;21243;-75
2023/04/11 10:12:51;;;;;;;13.07;11.87;;;8.40;99.90;;;;;;5042109;28;20457;-75
2023/04/11 10:15:19;;;;;;;19.37;16.70;;;8.40;99.90;;;;;;5040509;28;20493;-75
2023/04/11 10:18:08;;;;;;;11.13;9.50;;;8.30;99.90;;;;;;5045366;28;20468;-75
2023/04/11 10:20:49;;;;;;;19.23;14.73;;;8.40;99.90;;;;;;5044914;28;20939;-75
2023/04/11 10:23:17;;;;;;;16.47;12.23;;;8.30;99.90;;;;;;5044044;28;20564;-75
2023/04/11 10:25:52;;;;;;;10.57;9.57;;;8.50;99.90;;;;;;5039528;28;20489;-75
2023/04/11 10:28:37;;;;;;;17.37;13.57;;;8.60;99.90;;;;;;5041586;28;20461;-75
2023/04/11 10:31:06;;;;;;;10.10;9.00;;;8.50;99.90;;;;;;5039998;28;20467;-76
2023/04/11 10:33:34;;;;;;;9.43;6.97;;;8.30;99.90;;;;;;5046967;28;20493;-78
2023/04/11 10:36:04;;;;;;;9.30;8.30;;;8.30;99.90;;;;;;5044230;28;20538;-75
2023/04/11 10:38:51;;;;;;;7.13;4.50;;;8.50;99.90;;;;;;5041908;28;20557;-76
2023/04/11 10:41:20;;;;;;;5.03;3.67;;;8.80;99.90;;;;;;5042555;28;20476;-76
2023/04/11 10:43:47;;;;;;;3.90;3.40;;;9.00;99.90;;;;;;5038455;28;20571;-76
2023/04/11 10:46:19;;;;;;;3.27;2.97;;;9.20;99.90;;;;;;5046011;28;20507;-77
2023/04/11 10:49:00;;;;;;;5.53;2.70;;;9.30;99.90;;;;;;5043484;28;20465;-77
2023/04/11 10:51:28;;;;;;;2.00;1.80;;;9.30;99.90;;;;;;5037762;28;20556;-77
2023/04/11 10:53:58;;;;;;;2.57;1.37;;;9.40;99.90;;;;;;5039671;28;20550;-77
2023/04/11 10:56:56;;;;;;;3.60;1.00;;;9.50;99.90;;;;;;5040288;28;20728;-77
2023/04/11 10:59:58;;;;;;;6.30;1.53;;;9.70;99.90;;;;;;5035299;28;20527;-76
2023/04/11 11:02:36;;;;;;;2.47;1.37;;;9.90;99.90;;;;;;5041852;28;20488;-77
2023/04/11 11:05:15;;;;;;;1.33;1.00;;;10.00;99.90;;;;;;5039211;28;20471;-76
2023/04/11 11:07:50;;;;;;;1.17;1.07;;;10.30;99.90;;;;;;5045873;28;20481;-77
2023/04/11 11:10:35;;;;;;;1.20;0.87;;;10.70;99.90;;;;;;5041016;28;20452;-77
2023/04/11 11:13:02;;;;;;;4.00;0.93;;;11.20;99.90;;;;;;5043850;28;20457;-77
2023/04/11 11:15:29;;;;;;;0.80;0.70;;;11.40;99.90;;;;;;5042211;28;20469;-77
2023/04/11 11:17:56;;;;;;;0.93;0.90;;;11.60;99.90;;;;;;5049896;28;20488;-77
2023/04/11 11:20:23;;;;;;;1.17;1.07;;;11.60;99.90;;;;;;5044044;28;20506;-77
2023/04/11 11:23:01;;;;;;;2.30;0.57;;;11.60;99.90;;;;;;5036202;28;20520;-77
2023/04/11 11:25:29;;;;;;;0.50;0.50;;;11.40;99.90;;;;;;5051052;28;20554;-77
2023/04/11 11:28:01;;;;;;;3.00;0.60;;;11.20;99.90;;;;;;5043359;28;20495;-77
2023/04/11 11:30:28;;;;;;;0.60;0.53;;;10.90;99.90;;;;;;5044113;28;20457;-77
2023/04/11 11:32:56;;;;;;;2.40;0.80;;;10.70;99.90;;;;;;5041408;28;20468;-77
2023/04/11 11:35:23;;;;;;;0.63;0.60;;;10.50;99.90;;;;;;5038629;28;20520;-77
2023/04/11 11:37:52;;;;;;;0.50;0.50;;;10.40;99.90;;;;;;5043216;28;20457;-77
2023/04/11 11:40:21;;;;;;;0.83;0.67;;;10.20;99.90;;;;;;5045466;28;20530;-77
2023/04/11 11:42:51;;;;;;;1.20;0.60;;;10.00;99.90;;;;;;5042364;28;20987;-77
2023/04/11 11:45:20;;;;;;;1.27;0.70;;;9.90;99.90;;;;;;5042688;28;20469;-77
2023/04/11 11:47:48;;;;;;;1.00;0.90;;;9.90;99.90;;;;;;5044107;28;21138;-77
2023/04/11 11:50:29;;;;;;;1.00;0.80;;;10.00;99.90;;;;;;5042277;28;20554;-77
2023/04/11 11:53:10;;;;;;;1.20;0.80;;;10.00;99.90;;;;;;5039937;28;20461;-78
2023/04/11 11:55:37;;;;;;;0.97;0.90;;;10.00;99.90;;;;;;5047552;28;20573;-77
2023/04/11 11:58:06;;;;;;;1.10;0.70;;;10.10;99.90;;;;;;5042548;28;20445;-77
2023/04/11 12:00:37;;;;;;;1.00;0.90;;;10.30;99.90;;;;;;5043619;28;20782;-77
2023/04/11 12:03:05;;;;;;;3.43;1.40;;;10.50;99.90;;;;;;5040294;28;20484;-77
2023/04/11 12:05:33;;;;;;;3.13;2.70;;;10.30;99.90;;;;;;5040108;28;20493;-77
2023/04/11 12:08:03;;;;;;;3.73;2.53;;;10.20;99.90;;;;;;5041824;28;20540;-77
2023/04/11 12:10:38;;;;;;;5.60;5.00;;;10.10;99.90;;;;;;5035807;28;20492;-77
2023/04/11 12:13:14;;;;;;;5.53;3.80;;;10.00;99.90;;;;;;5042165;28;20465;-77
2023/04/11 12:15:44;;;;;;;6.70;4.57;;;9.90;99.90;;;;;;5038257;28;20468;-78
2023/04/11 12:18:11;;;;;;;4.40;4.00;;;9.90;99.90;;;;;;5042207;28;20466;-77
2023/04/11 12:20:38;;;;;;;6.07;5.47;;;9.90;99.90;;;;;;5042702;28;20469;-77
2023/04/11 12:23:05;;;;;;;4.53;4.13;;;9.90;99.90;;;;;;5039801;28;20547;-77
2023/04/11 12:25:32;;;;;;;5.70;4.57;;;9.90;99.90;;;;;;5039106;28;20526;-78
2023/04/11 12:27:59;;;;;;;9.83;5.90;;;9.90;99.90;;;;;;5038887;28;20469;-78
2023/04/11 12:30:27;;;;;;;6.63;5.00;;;9.80;99.90;;;;;;5041990;28;20799;-78
2023/04/11 12:32:55;;;;;;;5.00;4.50;;;9.50;99.90;;;;;;5041968;28;20896;-77
2023/04/11 12:35:22;;;;;;;1.93;1.50;;;9.50;99.90;;;;;;5043190;28;20507;-78
2023/04/11 12:37:49;;;;;;;1.43;0.80;;;9.50;99.90;;;;;;5038861;28;20465;-78
2023/04/11 12:40:16;;;;;;;1.00;0.90;;;9.40;99.90;;;;;;5041325;28;20517;-78
2023/04/11 12:42:45;;;;;;;0.87;0.80;;;9.50;99.90;;;;;;5047282;28;20555;-78
2023/04/11 12:45:13;;;;;;;1.07;0.70;;;9.60;99.90;;;;;;5038854;28;20764;-78
2023/04/11 12:47:41;;;;;;;1.00;0.60;;;9.50;99.90;;;;;;5043115;28;20543;-79
2023/04/11 12:50:09;;;;;;;2.00;0.70;;;9.40;99.90;;;;;;5044211;28;20461;-78
2023/04/11 12:52:37;;;;;;;0.97;0.70;;;9.30;99.90;;;;;;5043883;28;20470;-78
2023/04/11 12:55:04;;;;;;;1.10;0.90;;;9.20;99.90;;;;;;5041963;28;20803;-78
2023/04/11 12:57:31;;;;;;;2.20;1.10;;;9.10;99.90;;;;;;5045184;28;20895;-78
2023/04/11 12:59:58;;;;;;;0.80;0.70;;;9.10;99.90;;;;;;5045558;28;20873;-77
2023/04/11 13:02:25;;;;;;;0.80;0.80;;;8.90;99.90;;;;;;5042533;28;20832;-77